sensor_id;sensor_type;location;lat;lon;timestamp;temperature;humidity
2621;DHT22;1320;48.128;11.592;2023-02-01T00:01:42;5.50;99.90
2621;DHT22;1320;48.128;11.592;2023-02-01T00:04:07;5.50;99.90
2621;DHT22;1320;48.128;11.592;2023-02-01T00:06:33;5.60;99.90
2621;DHT22;1320;48.128;11.592;2023-02-01T00:08:59;5.60;99.90
2621;DHT22;1320;48.128;11.592;2023-02-01T00:11:25;5.60;99.90
2621;DHT22;1320;48.128;11.592;2023-02-01T00:13:51;5.60;99.90
2621;DHT22;1320;48.128;11.592;2023-02-01T00:16:19;5.60;99.90
2621;DHT22;1320;48.128;11.592;2023-02-01T00:18:46;5.60;99.90
2621;DHT22;1320;48.128;11.592;2023-02-01T00:21:17;5.60;99.90
2621;DHT22;1320;48.128;11.592;2023-02-01T00:23:43;5.70;99.90
2621;DHT22;1320;48.128;11.592;2023-02-01T00:26:18;5.70;99.90
2621;DHT22;1320;48.128;11.592;2023-02-01T00:28:44;5.70;99.90
2621;DHT22;1320;48.128;11.592;2023-02-01T00:31:10;5.80;99.90
2621;DHT22;1320;48.128;11.592;2023-02-01T00:33:36;5.80;99.90
2621;DHT22;1320;48.128;11.592;2023-02-01T00:36:04;5.80;99.90
2621;DHT22;1320;48.128;11.592;2023-02-01T00:38:31;5.80;99.90
2621;DHT22;1320;48.128;11.592;2023-02-01T00:41:10;5.90;99.90
2621;DHT22;1320;48.128;11.592;2023-02-01T00:43:36;5.90;99.90
2621;DHT22;1320;48.128;11.592;2023-02-01T00:46:02;5.90;99.90
2621;DHT22;1320;48.128;11.592;2023-02-01T00:48:28;6.00;99.90
2621;DHT22;1320;48.128;11.592;2023-02-01T00:50:54;5.90;99.90
2621;DHT22;1320;48.128;11.592;2023-02-01T00:53:20;5.80;99.90
2621;DHT22;1320;48.128;11.592;2023-02-01T00:55:47;5.80;99.90
2621;DHT22;1320;48.128;11.592;2023-02-01T00:58:13;5.70;99.90
2621;DHT22;1320;48.128;11.592;2023-02-01T01:00:39;5.60;99.90
2621;DHT22;1320;48.128;11.592;2023-02-01T01:03:04;5.50;99.90
2621;DHT22;1320;48.128;11.592;2023-02-01T01:05:56;5.40;99.90
2621;DHT22;1320;48.128;11.592;2023-02-01T01:08:22;5.20;99.90
2621;DHT22;1320;48.128;11.592;2023-02-01T01:10:48;5.10;99.90
2621;DHT22;1320;48.128;11.592;2023-02-01T01:13:15;5.10;99.90
2621;DHT22;1320;48.128;11.592;2023-02-01T01:15:41;5.10;99.90
2621;DHT22;1320;48.128;11.592;2023-02-01T01:18:07;5.00;99.90
2621;DHT22;1320;48.128;11.592;2023-02-01T01:20:35;4.90;99.90
2621;DHT22;1320;48.128;11.592;2023-02-01T01:23:01;4.90;99.90
2621;DHT22;1320;48.128;11.592;2023-02-01T01:25:27;4.90;99.90
2621;DHT22;1320;48.128;11.592;2023-02-01T01:27:53;4.80;99.90
2621;DHT22;1320;48.128;11.592;2023-02-01T01:30:18;4.90;99.90
2621;DHT22;1320;48.128;11.592;2023-02-01T01:32:44;4.90;99.90
2621;DHT22;1320;48.128;11.592;2023-02-01T01:35:10;4.90;99.90
2621;DHT22;1320;48.128;11.592;2023-02-01T01:37:36;4.90;99.90
2621;DHT22;1320;48.128;11.592;2023-02-01T01:40:02;5.00;99.90
2621;DHT22;1320;48.128;11.592;2023-02-01T01:42:28;5.00;99.90
2621;DHT22;1320;48.128;11.592;2023-02-01T01:47:20;4.90;99.90
2621;DHT22;1320;48.128;11.592;2023-02-01T01:49:45;4.90;99.90
2621;DHT22;1320;48.128;11.592;2023-02-01T01:52:11;4.90;99.90
2621;DHT22;1320;48.128;11.592;2023-02-01T01:54:40;4.80;99.90
2621;DHT22;1320;48.128;11.592;2023-02-01T01:57:14;4.80;99.90
2621;DHT22;1320;48.128;11.592;2023-02-01T01:59:42;4.80;99.90
2621;DHT22;1320;48.128;11.592;2023-02-01T02:02:09;4.80;99.90
2621;DHT22;1320;48.128;11.592;2023-02-01T02:04:35;4.80;99.90
2621;DHT22;1320;48.128;11.592;2023-02-01T02:07:03;4.70;99.90
2621;DHT22;1320;48.128;11.592;2023-02-01T02:09:29;4.70;99.90
2621;DHT22;1320;48.128;11.592;2023-02-01T02:11:55;4.60;99.90
2621;DHT22;1320;48.128;11.592;2023-02-01T02:14:22;4.70;99.90
2621;DHT22;1320;48.128;11.592;2023-02-01T02:19:30;4.70;99.90
2621;DHT22;1320;48.128;11.592;2023-02-01T02:41:33;4.80;99.90
2621;DHT22;1320;48.128;11.592;2023-02-01T02:47:34;4.80;99.90
2621;DHT22;1320;48.128;11.592;2023-02-01T02:50:45;4.80;99.90
2621;DHT22;1320;48.128;11.592;2023-02-01T02:53:32;4.80;99.90
2621;DHT22;1320;48.128;11.592;2023-02-01T02:56:20;4.80;99.90
2621;DHT22;1320;48.128;11.592;2023-02-01T02:59:07;4.80;99.90
2621;DHT22;1320;48.128;11.592;2023-02-01T03:01:53;4.90;99.90
2621;DHT22;1320;48.128;11.592;2023-02-01T03:04:37;4.90;99.90
2621;DHT22;1320;48.128;11.592;2023-02-01T03:07:15;5.00;99.90
2621;DHT22;1320;48.128;11.592;2023-02-01T03:10:03;4.90;99.90
2621;DHT22;1320;48.128;11.592;2023-02-01T03:12:33;4.90;99.90
2621;DHT22;1320;48.128;11.592;2023-02-01T03:15:32;4.90;99.90
2621;DHT22;1320;48.128;11.592;2023-02-01T03:18:01;4.90;99.90
2621;DHT22;1320;48.128;11.592;2023-02-01T03:20:30;4.90;99.90
2621;DHT22;1320;48.128;11.592;2023-02-01T03:22:57;4.90;99.90
2621;DHT22;1320;48.128;11.592;2023-02-01T03:25:30;4.90;99.90
2621;DHT22;1320;48.128;11.592;2023-02-01T03:28:06;4.90;99.90
2621;DHT22;1320;48.128;11.592;2023-02-01T03:30:40;4.90;99.90
2621;DHT22;1320;48.128;11.592;2023-02-01T03:33:11;4.90;99.90
2621;DHT22;1320;48.128;11.592;2023-02-01T03:36:58;5.00;99.90
2621;DHT22;1320;48.128;11.592;2023-02-01T03:39:34;5.00;99.90
2621;DHT22;1320;48.128;11.592;2023-02-01T03:42:28;5.00;99.90
2621;DHT22;1320;48.128;11.592;2023-02-01T03:47:35;5.00;99.90
2621;DHT22;1320;48.128;11.592;2023-02-01T03:50:05;5.00;99.90
2621;DHT22;1320;48.128;11.592;2023-02-01T03:52:44;5.10;99.90
2621;DHT22;1320;48.128;11.592;2023-02-01T03:55:11;5.10;99.90
2621;DHT22;1320;48.128;11.592;2023-02-01T03:57:43;5.00;99.90
2621;DHT22;1320;48.128;11.592;2023-02-01T04:02:41;5.00;99.90
2621;DHT22;1320;48.128;11.592;2023-02-01T04:05:08;5.00;99.90
2621;DHT22;1320;48.128;11.592;2023-02-01T04:07:33;5.00;99.90
2621;DHT22;1320;48.128;11.592;2023-02-01T04:09:59;5.00;99.90
2621;DHT22;1320;48.128;11.592;2023-02-01T04:12:25;5.00;99.90
2621;DHT22;1320;48.128;11.592;2023-02-01T04:14:50;5.00;99.90
2621;DHT22;1320;48.128;11.592;2023-02-01T04:17:16;5.00;99.90
2621;DHT22;1320;48.128;11.592;2023-02-01T04:19:42;5.00;99.90
2621;DHT22;1320;48.128;11.592;2023-02-01T04:22:07;5.10;99.90
2621;DHT22;1320;48.128;11.592;2023-02-01T04:24:33;5.20;99.90
2621;DHT22;1320;48.128;11.592;2023-02-01T04:26:59;5.20;99.90
2621;DHT22;1320;48.128;11.592;2023-02-01T04:29:24;5.30;99.90
2621;DHT22;1320;48.128;11.592;2023-02-01T04:31:50;5.30;99.90
2621;DHT22;1320;48.128;11.592;2023-02-01T04:34:15;5.30;99.90
2621;DHT22;1320;48.128;11.592;2023-02-01T04:36:41;5.20;99.90
2621;DHT22;1320;48.128;11.592;2023-02-01T04:39:09;5.20;99.90
2621;DHT22;1320;48.128;11.592;2023-02-01T04:41:35;5.10;99.90
2621;DHT22;1320;48.128;11.592;2023-02-01T04:44:01;5.10;99.90
2621;DHT22;1320;48.128;11.592;2023-02-01T04:46:26;5.10;99.90
2621;DHT22;1320;48.128;11.592;2023-02-01T04:48:52;5.10;99.90
2621;DHT22;1320;48.128;11.592;2023-02-01T04:51:18;5.10;99.90
2621;DHT22;1320;48.128;11.592;2023-02-01T04:53:44;5.20;99.90
2621;DHT22;1320;48.128;11.592;2023-02-01T04:56:10;5.20;99.90
2621;DHT22;1320;48.128;11.592;2023-02-01T04:58:36;5.20;99.90
2621;DHT22;1320;48.128;11.592;2023-02-01T05:01:03;5.20;99.90
2621;DHT22;1320;48.128;11.592;2023-02-01T05:03:30;5.10;99.90
2621;DHT22;1320;48.128;11.592;2023-02-01T05:05:56;5.20;99.90
2621;DHT22;1320;48.128;11.592;2023-02-01T05:08:22;5.20;99.90
2621;DHT22;1320;48.128;11.592;2023-02-01T05:10:48;5.10;99.90
2621;DHT22;1320;48.128;11.592;2023-02-01T05:13:13;5.10;99.90
2621;DHT22;1320;48.128;11.592;2023-02-01T05:15:57;5.10;99.90
2621;DHT22;1320;48.128;11.592;2023-02-01T05:18:23;5.10;99.90
2621;DHT22;1320;48.128;11.592;2023-02-01T05:20:49;5.10;99.90
2621;DHT22;1320;48.128;11.592;2023-02-01T05:23:14;5.10;99.90
2621;DHT22;1320;48.128;11.592;2023-02-01T05:25:40;5.10;99.90
2621;DHT22;1320;48.128;11.592;2023-02-01T05:28:06;5.10;99.90
2621;DHT22;1320;48.128;11.592;2023-02-01T05:30:32;5.20;99.90
2621;DHT22;1320;48.128;11.592;2023-02-01T05:33:00;5.20;99.90
2621;DHT22;1320;48.128;11.592;2023-02-01T05:35:26;5.20;99.90
2621;DHT22;1320;48.128;11.592;2023-02-01T05:37:52;5.10;99.90
2621;DHT22;1320;48.128;11.592;2023-02-01T05:40:17;5.10;99.90
2621;DHT22;1320;48.128;11.592;2023-02-01T05:42:43;5.20;99.90
2621;DHT22;1320;48.128;11.592;2023-02-01T05:45:09;5.20;99.90
2621;DHT22;1320;48.128;11.592;2023-02-01T05:47:34;5.30;99.90
2621;DHT22;1320;48.128;11.592;2023-02-01T05:50:00;5.30;99.90
2621;DHT22;1320;48.128;11.592;2023-02-01T05:52:26;5.30;99.90
2621;DHT22;1320;48.128;11.592;2023-02-01T05:54:51;5.30;99.90
2621;DHT22;1320;48.128;11.592;2023-02-01T05:57:18;5.30;99.90
2621;DHT22;1320;48.128;11.592;2023-02-01T05:59:43;5.40;99.90
2621;DHT22;1320;48.128;11.592;2023-02-01T06:02:13;5.30;99.90
2621;DHT22;1320;48.128;11.592;2023-02-01T06:04:38;5.30;99.90
2621;DHT22;1320;48.128;11.592;2023-02-01T06:07:05;5.20;99.90
2621;DHT22;1320;48.128;11.592;2023-02-01T06:09:32;5.20;99.90
2621;DHT22;1320;48.128;11.592;2023-02-01T06:11:58;5.20;99.90
2621;DHT22;1320;48.128;11.592;2023-02-01T06:14:24;5.10;99.90
2621;DHT22;1320;48.128;11.592;2023-02-01T06:16:50;5.10;99.90
2621;DHT22;1320;48.128;11.592;2023-02-01T06:19:16;5.20;99.90
2621;DHT22;1320;48.128;11.592;2023-02-01T06:21:42;5.10;99.90
2621;DHT22;1320;48.128;11.592;2023-02-01T06:24:08;5.20;99.90
2621;DHT22;1320;48.128;11.592;2023-02-01T06:26:33;5.30;99.90
2621;DHT22;1320;48.128;11.592;2023-02-01T06:28:59;5.30;99.90
2621;DHT22;1320;48.128;11.592;2023-02-01T06:31:25;5.20;99.90
2621;DHT22;1320;48.128;11.592;2023-02-01T06:33:51;5.30;99.90
2621;DHT22;1320;48.128;11.592;2023-02-01T06:36:17;5.30;99.90
2621;DHT22;1320;48.128;11.592;2023-02-01T06:38:44;5.30;99.90
2621;DHT22;1320;48.128;11.592;2023-02-01T06:41:10;5.30;99.90
2621;DHT22;1320;48.128;11.592;2023-02-01T06:43:36;5.20;99.90
2621;DHT22;1320;48.128;11.592;2023-02-01T06:46:05;5.30;99.90
2621;DHT22;1320;48.128;11.592;2023-02-01T06:48:31;5.30;99.90
2621;DHT22;1320;48.128;11.592;2023-02-01T06:50:57;5.30;99.90
2621;DHT22;1320;48.128;11.592;2023-02-01T06:53:24;5.30;99.90
2621;DHT22;1320;48.128;11.592;2023-02-01T06:55:57;5.30;99.90
2621;DHT22;1320;48.128;11.592;2023-02-01T06:58:23;5.30;99.90
2621;DHT22;1320;48.128;11.592;2023-02-01T07:00:49;5.30;99.90
2621;DHT22;1320;48.128;11.592;2023-02-01T07:03:16;5.30;99.90
2621;DHT22;1320;48.128;11.592;2023-02-01T07:05:41;5.30;99.90
2621;DHT22;1320;48.128;11.592;2023-02-01T07:08:07;5.40;99.90
2621;DHT22;1320;48.128;11.592;2023-02-01T07:10:34;5.40;99.90
2621;DHT22;1320;48.128;11.592;2023-02-01T07:13:00;5.40;99.90
2621;DHT22;1320;48.128;11.592;2023-02-01T07:15:26;5.40;99.90
2621;DHT22;1320;48.128;11.592;2023-02-01T07:17:54;5.40;99.90
2621;DHT22;1320;48.128;11.592;2023-02-01T07:20:20;5.40;99.90
2621;DHT22;1320;48.128;11.592;2023-02-01T07:22:46;5.40;99.90
2621;DHT22;1320;48.128;11.592;2023-02-01T07:25:12;5.30;99.90
2621;DHT22;1320;48.128;11.592;2023-02-01T07:27:38;5.30;99.90
2621;DHT22;1320;48.128;11.592;2023-02-01T07:30:05;5.30;99.90
2621;DHT22;1320;48.128;11.592;2023-02-01T07:32:31;5.30;99.90
2621;DHT22;1320;48.128;11.592;2023-02-01T07:34:57;5.40;99.90
2621;DHT22;1320;48.128;11.592;2023-02-01T07:37:23;5.40;99.90
2621;DHT22;1320;48.128;11.592;2023-02-01T07:39:52;5.40;99.90
2621;DHT22;1320;48.128;11.592;2023-02-01T07:42:18;5.40;99.90
2621;DHT22;1320;48.128;11.592;2023-02-01T07:44:44;5.50;99.90
2621;DHT22;1320;48.128;11.592;2023-02-01T07:47:09;5.50;99.90
2621;DHT22;1320;48.128;11.592;2023-02-01T07:49:35;5.50;99.90
2621;DHT22;1320;48.128;11.592;2023-02-01T07:52:01;5.50;99.90
2621;DHT22;1320;48.128;11.592;2023-02-01T07:54:26;5.50;99.90
2621;DHT22;1320;48.128;11.592;2023-02-01T07:56:52;5.50;99.90
2621;DHT22;1320;48.128;11.592;2023-02-01T07:59:18;5.50;99.90
2621;DHT22;1320;48.128;11.592;2023-02-01T08:01:44;5.60;99.90
2621;DHT22;1320;48.128;11.592;2023-02-01T08:04:11;5.60;99.90
2621;DHT22;1320;48.128;11.592;2023-02-01T08:06:37;5.70;99.90
2621;DHT22;1320;48.128;11.592;2023-02-01T08:09:04;5.80;99.90
2621;DHT22;1320;48.128;11.592;2023-02-01T08:11:30;5.80;99.90
2621;DHT22;1320;48.128;11.592;2023-02-01T08:13:56;5.90;99.90
2621;DHT22;1320;48.128;11.592;2023-02-01T08:16:23;5.90;99.90
2621;DHT22;1320;48.128;11.592;2023-02-01T08:18:49;5.90;99.90
2621;DHT22;1320;48.128;11.592;2023-02-01T08:21:21;5.90;99.90
2621;DHT22;1320;48.128;11.592;2023-02-01T08:23:48;6.00;99.90
2621;DHT22;1320;48.128;11.592;2023-02-01T08:26:16;6.00;99.90
2621;DHT22;1320;48.128;11.592;2023-02-01T08:28:45;6.10;99.90
2621;DHT22;1320;48.128;11.592;2023-02-01T08:31:13;6.10;99.90
2621;DHT22;1320;48.128;11.592;2023-02-01T08:33:43;6.10;99.90
2621;DHT22;1320;48.128;11.592;2023-02-01T08:36:10;6.20;99.90
2621;DHT22;1320;48.128;11.592;2023-02-01T08:38:37;6.20;99.90
2621;DHT22;1320;48.128;11.592;2023-02-01T08:41:09;6.30;99.90
2621;DHT22;1320;48.128;11.592;2023-02-01T08:43:35;6.20;99.90
2621;DHT22;1320;48.128;11.592;2023-02-01T08:46:02;6.30;99.90
2621;DHT22;1320;48.128;11.592;2023-02-01T08:48:28;6.30;99.90
2621;DHT22;1320;48.128;11.592;2023-02-01T08:50:54;6.20;99.90
2621;DHT22;1320;48.128;11.592;2023-02-01T08:53:19;6.20;99.90
2621;DHT22;1320;48.128;11.592;2023-02-01T08:55:46;6.30;99.90
2621;DHT22;1320;48.128;11.592;2023-02-01T08:58:12;6.30;99.90
2621;DHT22;1320;48.128;11.592;2023-02-01T09:00:40;6.40;99.90
2621;DHT22;1320;48.128;11.592;2023-02-01T09:03:07;6.40;99.90
2621;DHT22;1320;48.128;11.592;2023-02-01T09:05:34;6.40;99.90
2621;DHT22;1320;48.128;11.592;2023-02-01T09:08:00;6.50;99.90
2621;DHT22;1320;48.128;11.592;2023-02-01T09:10:26;6.50;99.90
2621;DHT22;1320;48.128;11.592;2023-02-01T09:12:51;6.50;99.90
2621;DHT22;1320;48.128;11.592;2023-02-01T09:15:17;6.50;99.90
2621;DHT22;1320;48.128;11.592;2023-02-01T09:17:43;6.40;99.90
2621;DHT22;1320;48.128;11.592;2023-02-01T09:20:09;6.40;99.90
2621;DHT22;1320;48.128;11.592;2023-02-01T09:22:35;6.50;99.90
2621;DHT22;1320;48.128;11.592;2023-02-01T09:25:01;6.50;99.90
2621;DHT22;1320;48.128;11.592;2023-02-01T09:27:26;6.50;99.90
2621;DHT22;1320;48.128;11.592;2023-02-01T09:29:52;6.60;99.90
2621;DHT22;1320;48.128;11.592;2023-02-01T09:32:22;6.60;99.90
2621;DHT22;1320;48.128;11.592;2023-02-01T09:34:49;6.60;99.90
2621;DHT22;1320;48.128;11.592;2023-02-01T09:37:15;6.70;99.90
2621;DHT22;1320;48.128;11.592;2023-02-01T09:39:40;6.70;99.90
2621;DHT22;1320;48.128;11.592;2023-02-01T09:45:17;6.70;99.90
2621;DHT22;1320;48.128;11.592;2023-02-01T09:47:49;6.70;99.90
2621;DHT22;1320;48.128;11.592;2023-02-01T09:50:21;6.80;99.90
2621;DHT22;1320;48.128;11.592;2023-02-01T09:53:00;6.80;99.90
2621;DHT22;1320;48.128;11.592;2023-02-01T09:55:50;6.90;99.90
2621;DHT22;1320;48.128;11.592;2023-02-01T10:00:55;7.00;99.90
2621;DHT22;1320;48.128;11.592;2023-02-01T10:03:24;6.90;99.90
2621;DHT22;1320;48.128;11.592;2023-02-01T10:27:38;6.90;99.90
2621;DHT22;1320;48.128;11.592;2023-02-01T10:30:21;6.80;99.90
2621;DHT22;1320;48.128;11.592;2023-02-01T10:32:51;6.80;99.90
2621;DHT22;1320;48.128;11.592;2023-02-01T10:35:28;6.80;99.90
2621;DHT22;1320;48.128;11.592;2023-02-01T10:37:58;6.80;99.90
2621;DHT22;1320;48.128;11.592;2023-02-01T10:40:26;6.80;99.90
2621;DHT22;1320;48.128;11.592;2023-02-01T10:42:58;6.80;99.90
2621;DHT22;1320;48.128;11.592;2023-02-01T10:45:29;6.80;99.90
2621;DHT22;1320;48.128;11.592;2023-02-01T10:47:57;6.90;99.90
2621;DHT22;1320;48.128;11.592;2023-02-01T10:53:12;6.90;99.90
2621;DHT22;1320;48.128;11.592;2023-02-01T10:55:48;6.90;99.90
2621;DHT22;1320;48.128;11.592;2023-02-01T10:58:30;7.00;99.90
2621;DHT22;1320;48.128;11.592;2023-02-01T11:00:57;7.00;99.90
2621;DHT22;1320;48.128;11.592;2023-02-01T11:06:01;6.90;99.90
2621;DHT22;1320;48.128;11.592;2023-02-01T11:08:28;6.90;99.90
2621;DHT22;1320;48.128;11.592;2023-02-01T11:11:02;6.90;99.90
2621;DHT22;1320;48.128;11.592;2023-02-01T11:13:31;6.90;99.90
2621;DHT22;1320;48.128;11.592;2023-02-01T11:15:59;6.80;99.90
2621;DHT22;1320;48.128;11.592;2023-02-01T11:18:29;6.80;99.90
2621;DHT22;1320;48.128;11.592;2023-02-01T11:20:55;6.80;99.90
2621;DHT22;1320;48.128;11.592;2023-02-01T11:23:24;6.90;99.90
2621;DHT22;1320;48.128;11.592;2023-02-01T11:25:58;6.90;99.90
2621;DHT22;1320;48.128;11.592;2023-02-01T11:28:29;6.80;99.90
2621;DHT22;1320;48.128;11.592;2023-02-01T11:31:02;6.90;99.90
2621;DHT22;1320;48.128;11.592;2023-02-01T11:33:34;7.00;99.90
2621;DHT22;1320;48.128;11.592;2023-02-01T11:36:15;7.00;99.90
2621;DHT22;1320;48.128;11.592;2023-02-01T11:41:30;7.00;99.90
2621;DHT22;1320;48.128;11.592;2023-02-01T11:44:00;6.90;99.90
2621;DHT22;1320;48.128;11.592;2023-02-01T11:46:32;6.90;99.90
2621;DHT22;1320;48.128;11.592;2023-02-01T11:49:19;6.90;99.90
2621;DHT22;1320;48.128;11.592;2023-02-01T12:05:18;6.60;99.90
2621;DHT22;1320;48.128;11.592;2023-02-01T12:18:41;6.50;99.90
2621;DHT22;1320;48.128;11.592;2023-02-01T12:21:28;6.50;99.90
2621;DHT22;1320;48.128;11.592;2023-02-01T12:26:56;6.40;99.90
2621;DHT22;1320;48.128;11.592;2023-02-01T12:46:06;6.30;99.90
2621;DHT22;1320;48.128;11.592;2023-02-01T12:48:50;6.30;99.90
2621;DHT22;1320;48.128;11.592;2023-02-01T12:51:23;6.30;99.90
2621;DHT22;1320;48.128;11.592;2023-02-01T12:56:35;6.30;99.90
2621;DHT22;1320;48.128;11.592;2023-02-01T12:59:05;6.30;99.90
2621;DHT22;1320;48.128;11.592;2023-02-01T13:01:34;6.40;99.90
2621;DHT22;1320;48.128;11.592;2023-02-01T13:04:23;6.30;99.90
2621;DHT22;1320;48.128;11.592;2023-02-01T13:09:45;6.40;99.90
2621;DHT22;1320;48.128;11.592;2023-02-01T13:12:16;6.50;99.90
2621;DHT22;1320;48.128;11.592;2023-02-01T13:17:31;6.60;99.90
2621;DHT22;1320;48.128;11.592;2023-02-01T13:20:14;6.50;99.90
2621;DHT22;1320;48.128;11.592;2023-02-01T13:22:54;6.50;99.90
2621;DHT22;1320;48.128;11.592;2023-02-01T13:28:19;6.50;99.90
2621;DHT22;1320;48.128;11.592;2023-02-01T13:36:03;6.50;99.90
2621;DHT22;1320;48.128;11.592;2023-02-01T13:38:53;6.40;99.90
2621;DHT22;1320;48.128;11.592;2023-02-01T13:41:40;6.40;99.90
2621;DHT22;1320;48.128;11.592;2023-02-01T13:44:16;6.40;99.90
2621;DHT22;1320;48.128;11.592;2023-02-01T13:46:46;6.40;99.90
2621;DHT22;1320;48.128;11.592;2023-02-01T13:49:22;6.50;99.90
2621;DHT22;1320;48.128;11.592;2023-02-01T13:51:51;6.60;99.90
2621;DHT22;1320;48.128;11.592;2023-02-01T13:54:38;6.60;99.90
2621;DHT22;1320;48.128;11.592;2023-02-01T13:57:14;6.70;99.90
2621;DHT22;1320;48.128;11.592;2023-02-01T13:59:52;6.70;99.90
2621;DHT22;1320;48.128;11.592;2023-02-01T14:13:27;6.80;99.90
2621;DHT22;1320;48.128;11.592;2023-02-01T14:16:15;6.80;99.90
2621;DHT22;1320;48.128;11.592;2023-02-01T14:21:20;6.60;99.90
2621;DHT22;1320;48.128;11.592;2023-02-01T14:23:59;6.60;99.90
2621;DHT22;1320;48.128;11.592;2023-02-01T14:31:50;6.50;99.90
2621;DHT22;1320;48.128;11.592;2023-02-01T14:42:37;6.30;99.90
2621;DHT22;1320;48.128;11.592;2023-02-01T14:47:55;6.30;99.90
2621;DHT22;1320;48.128;11.592;2023-02-01T14:50:46;6.30;99.90
2621;DHT22;1320;48.128;11.592;2023-02-01T14:55:51;6.30;99.90
2621;DHT22;1320;48.128;11.592;2023-02-01T15:03:46;6.40;99.90
2621;DHT22;1320;48.128;11.592;2023-02-01T15:06:29;6.40;99.90
2621;DHT22;1320;48.128;11.592;2023-02-01T15:11:27;6.40;99.90
2621;DHT22;1320;48.128;11.592;2023-02-01T15:13:53;6.40;99.90
2621;DHT22;1320;48.128;11.592;2023-02-01T15:16:22;6.40;99.90
2621;DHT22;1320;48.128;11.592;2023-02-01T15:18:49;6.40;99.90
2621;DHT22;1320;48.128;11.592;2023-02-01T15:21:20;6.30;99.90
2621;DHT22;1320;48.128;11.592;2023-02-01T15:23:46;6.30;99.90
2621;DHT22;1320;48.128;11.592;2023-02-01T15:26:31;6.30;99.90
2621;DHT22;1320;48.128;11.592;2023-02-01T15:29:00;6.30;99.90
2621;DHT22;1320;48.128;11.592;2023-02-01T15:31:58;6.30;99.90
2621;DHT22;1320;48.128;11.592;2023-02-01T15:34:47;6.20;99.90
2621;DHT22;1320;48.128;11.592;2023-02-01T15:37:15;6.20;99.90
2621;DHT22;1320;48.128;11.592;2023-02-01T15:42:46;6.10;99.90
2621;DHT22;1320;48.128;11.592;2023-02-01T15:45:25;6.00;99.90
2621;DHT22;1320;48.128;11.592;2023-02-01T15:47:53;5.90;99.90
2621;DHT22;1320;48.128;11.592;2023-02-01T15:50:20;5.90;99.90
2621;DHT22;1320;48.128;11.592;2023-02-01T15:52:50;5.80;99.90
2621;DHT22;1320;48.128;11.592;2023-02-01T15:55:40;5.80;99.90
2621;DHT22;1320;48.128;11.592;2023-02-01T15:58:09;5.80;99.90
2621;DHT22;1320;48.128;11.592;2023-02-01T16:01:00;5.80;99.90
2621;DHT22;1320;48.128;11.592;2023-02-01T16:03:40;5.70;99.90
2621;DHT22;1320;48.128;11.592;2023-02-01T16:06:28;5.70;99.90
2621;DHT22;1320;48.128;11.592;2023-02-01T16:09:11;5.70;99.90
2621;DHT22;1320;48.128;11.592;2023-02-01T16:12:03;5.70;99.90
2621;DHT22;1320;48.128;11.592;2023-02-01T16:14:29;5.70;99.90
2621;DHT22;1320;48.128;11.592;2023-02-01T16:16:57;5.70;99.90
2621;DHT22;1320;48.128;11.592;2023-02-01T16:19:23;5.70;99.90
2621;DHT22;1320;48.128;11.592;2023-02-01T16:21:53;5.70;99.90
2621;DHT22;1320;48.128;11.592;2023-02-01T16:24:19;5.80;99.90
2621;DHT22;1320;48.128;11.592;2023-02-01T16:26:47;5.80;99.90
2621;DHT22;1320;48.128;11.592;2023-02-01T16:29:13;5.80;99.90
2621;DHT22;1320;48.128;11.592;2023-02-01T16:31:40;5.90;99.90
2621;DHT22;1320;48.128;11.592;2023-02-01T16:34:13;5.90;99.90
2621;DHT22;1320;48.128;11.592;2023-02-01T16:36:40;5.90;99.90
2621;DHT22;1320;48.128;11.592;2023-02-01T16:39:15;5.90;99.90
2621;DHT22;1320;48.128;11.592;2023-02-01T16:41:40;5.90;99.90
2621;DHT22;1320;48.128;11.592;2023-02-01T16:44:06;5.90;99.90
2621;DHT22;1320;48.128;11.592;2023-02-01T16:46:34;5.90;99.90
2621;DHT22;1320;48.128;11.592;2023-02-01T16:49:01;5.90;99.90
2621;DHT22;1320;48.128;11.592;2023-02-01T16:51:29;5.90;99.90
2621;DHT22;1320;48.128;11.592;2023-02-01T16:53:58;5.90;99.90
2621;DHT22;1320;48.128;11.592;2023-02-01T16:56:30;5.90;99.90
2621;DHT22;1320;48.128;11.592;2023-02-01T16:58:56;5.90;99.90
2621;DHT22;1320;48.128;11.592;2023-02-01T17:01:23;5.90;99.90
2621;DHT22;1320;48.128;11.592;2023-02-01T17:03:49;5.80;99.90
2621;DHT22;1320;48.128;11.592;2023-02-01T17:06:18;5.90;99.90
2621;DHT22;1320;48.128;11.592;2023-02-01T17:08:46;5.90;99.90
2621;DHT22;1320;48.128;11.592;2023-02-01T17:11:13;5.90;99.90
2621;DHT22;1320;48.128;11.592;2023-02-01T17:13:39;6.00;99.90
2621;DHT22;1320;48.128;11.592;2023-02-01T17:16:30;6.00;99.90
2621;DHT22;1320;48.128;11.592;2023-02-01T17:19:06;6.00;99.90
2621;DHT22;1320;48.128;11.592;2023-02-01T17:21:45;6.00;99.90
2621;DHT22;1320;48.128;11.592;2023-02-01T17:24:13;6.00;99.90
2621;DHT22;1320;48.128;11.592;2023-02-01T17:26:40;6.00;99.90
2621;DHT22;1320;48.128;11.592;2023-02-01T17:29:06;6.00;99.90
2621;DHT22;1320;48.128;11.592;2023-02-01T17:31:35;6.00;99.90
2621;DHT22;1320;48.128;11.592;2023-02-01T17:34:02;6.00;99.90
2621;DHT22;1320;48.128;11.592;2023-02-01T17:36:27;6.00;99.90
2621;DHT22;1320;48.128;11.592;2023-02-01T17:38:53;6.00;99.90
2621;DHT22;1320;48.128;11.592;2023-02-01T17:41:19;6.00;99.90
2621;DHT22;1320;48.128;11.592;2023-02-01T17:43:44;6.00;99.90
2621;DHT22;1320;48.128;11.592;2023-02-01T17:46:15;6.00;99.90
2621;DHT22;1320;48.128;11.592;2023-02-01T17:48:42;6.00;99.90
2621;DHT22;1320;48.128;11.592;2023-02-01T17:51:16;6.10;99.90
2621;DHT22;1320;48.128;11.592;2023-02-01T17:53:43;6.10;99.90
2621;DHT22;1320;48.128;11.592;2023-02-01T17:56:15;6.10;99.90
2621;DHT22;1320;48.128;11.592;2023-02-01T17:58:42;6.10;99.90
2621;DHT22;1320;48.128;11.592;2023-02-01T18:01:17;6.00;99.90
2621;DHT22;1320;48.128;11.592;2023-02-01T18:03:43;6.00;99.90
2621;DHT22;1320;48.128;11.592;2023-02-01T18:06:22;6.00;99.90
2621;DHT22;1320;48.128;11.592;2023-02-01T18:08:49;6.00;99.90
2621;DHT22;1320;48.128;11.592;2023-02-01T18:11:17;6.00;99.90
2621;DHT22;1320;48.128;11.592;2023-02-01T18:13:44;6.00;99.90
2621;DHT22;1320;48.128;11.592;2023-02-01T18:16:23;6.00;99.90
2621;DHT22;1320;48.128;11.592;2023-02-01T18:18:49;6.00;99.90
2621;DHT22;1320;48.128;11.592;2023-02-01T18:21:16;6.10;99.90
2621;DHT22;1320;48.128;11.592;2023-02-01T18:23:43;6.10;99.90
2621;DHT22;1320;48.128;11.592;2023-02-01T18:26:13;6.10;99.90
2621;DHT22;1320;48.128;11.592;2023-02-01T18:28:39;6.20;99.90
2621;DHT22;1320;48.128;11.592;2023-02-01T18:31:15;6.20;99.90
2621;DHT22;1320;48.128;11.592;2023-02-01T18:33:45;6.20;99.90
2621;DHT22;1320;48.128;11.592;2023-02-01T18:36:12;6.10;99.90
2621;DHT22;1320;48.128;11.592;2023-02-01T18:38:37;6.20;99.90
2621;DHT22;1320;48.128;11.592;2023-02-01T18:41:03;6.20;99.90
2621;DHT22;1320;48.128;11.592;2023-02-01T18:43:30;6.20;99.90
2621;DHT22;1320;48.128;11.592;2023-02-01T18:45:56;6.30;99.90
2621;DHT22;1320;48.128;11.592;2023-02-01T18:48:21;6.30;99.90
2621;DHT22;1320;48.128;11.592;2023-02-01T18:50:48;6.30;99.90
2621;DHT22;1320;48.128;11.592;2023-02-01T18:53:18;6.40;99.90
2621;DHT22;1320;48.128;11.592;2023-02-01T18:55:46;6.30;99.90
2621;DHT22;1320;48.128;11.592;2023-02-01T18:58:13;6.30;99.90
2621;DHT22;1320;48.128;11.592;2023-02-01T19:00:41;6.20;99.90
2621;DHT22;1320;48.128;11.592;2023-02-01T19:03:08;6.10;99.90
2621;DHT22;1320;48.128;11.592;2023-02-01T19:05:35;6.10;99.90
2621;DHT22;1320;48.128;11.592;2023-02-01T19:08:01;6.20;99.90
2621;DHT22;1320;48.128;11.592;2023-02-01T19:10:27;6.20;99.90
2621;DHT22;1320;48.128;11.592;2023-02-01T19:12:53;6.10;99.90